Time;durP1;ratioP1;P1;durP2;ratioP2;P2;SDS_P1;SDS_P2;PMS_P1;PMS_P2;Temp;Humidity;BMP_temperature;BMP_pressure;BME280_temperature;BME280_humidity;BME280_pressure;Samples;Min_cycle;Max_cycle;Signal;HPM_P1;HPM_P2
2021/04/06 00:01:50;;;;;;;11.30;3.67;;;;;;;;;;5094951;28;20043;-72
2021/04/06 00:04:24;;;;;;;13.93;4.07;;;;;;;;;;5094886;28;20481;-72
2021/04/06 00:06:51;;;;;;;13.00;3.38;;;;;;;;;;5094668;28;20089;-72
2021/04/06 00:09:21;;;;;;;13.68;4.95;;;;;;;;;;5094751;28;20047;-72
2021/04/06 00:11:48;;;;;;;11.13;5.00;;;;;;;;;;5092131;28;20031;-72
2021/04/06 00:14:16;;;;;;;7.97;3.97;;;;;;;;;;5094773;28;20043;-72
2021/04/06 00:16:43;;;;;;;11.60;4.03;;;;;;;;;;5094527;28;20038;-72
2021/04/06 00:19:10;;;;;;;12.07;3.95;;;;;;;;;;5094508;28;20036;-72
2021/04/06 00:21:37;;;;;;;15.65;4.78;;;;;;;;;;5094690;28;20032;-72
2021/04/06 00:24:04;;;;;;;13.30;4.60;;;;;;;;;;5093329;28;20123;-72
2021/04/06 00:26:46;;;;;;;9.98;3.95;;;;;;;;;;5094554;28;20032;-72
2021/04/06 00:29:14;;;;;;;10.40;3.80;;;;;;;;;;5094119;28;20044;-72
2021/04/06 00:31:43;;;;;;;10.73;4.25;;;;;;;;;;5094199;28;20046;-72
2021/04/06 00:34:09;;;;;;;14.75;3.85;;;;;;;;;;5094368;28;20046;-72
2021/04/06 00:36:36;;;;;;;11.35;3.70;;;;;;;;;;5094106;28;20390;-72
2021/04/06 00:39:02;;;;;;;13.63;3.85;;;;;;;;;;5091781;28;20039;-72
2021/04/06 00:41:29;;;;;;;9.32;3.72;;;;;;;;;;5093581;28;20040;-72
2021/04/06 00:43:54;;;;;;;9.65;3.70;;;;;;;;;;5093885;28;20036;-72
2021/04/06 00:46:26;;;;;;;10.18;4.95;;;;;;;;;;5094079;28;20504;-72
2021/04/06 00:48:54;;;;;;;10.73;4.18;;;;;;;;;;5094042;28;20455;-72
2021/04/06 00:51:20;;;;;;;10.13;4.32;;;;;;;;;;5094037;28;20032;-72
2021/04/06 00:54:05;;;;;;;11.65;4.45;;;;;;;;;;5093818;28;20063;-72
2021/04/06 00:56:31;;;;;;;9.82;3.65;;;;;;;;;;5093405;28;20089;-72
2021/04/06 00:59:00;;;;;;;7.22;3.92;;;;;;;;;;5093596;28;20028;-73
2021/04/06 01:01:37;;;;;;;5.82;3.17;;;;;;;;;;5094098;28;20150;-72
2021/04/06 01:04:13;;;;;;;6.30;3.58;;;;;;;;;;5092988;28;20465;-72
2021/04/06 01:07:12;;;;;;;4.43;3.10;;;;;;;;;;5093576;28;20040;-73
2021/04/06 01:09:46;;;;;;;6.22;3.63;;;;;;;;;;5093887;28;20093;-72
2021/04/06 01:12:20;;;;;;;8.38;3.78;;;;;;;;;;5092672;28;20455;-72
2021/04/06 01:14:47;;;;;;;6.45;4.25;;;;;;;;;;5092523;28;20040;-72
2021/04/06 01:17:15;;;;;;;6.82;3.63;;;;;;;;;;5093652;28;20056;-72
2021/04/06 01:19:41;;;;;;;6.38;3.85;;;;;;;;;;5094107;28;20032;-72
2021/04/06 01:22:09;;;;;;;5.10;4.20;;;;;;;;;;5094224;28;20539;-72
2021/04/06 01:24:36;;;;;;;6.65;4.38;;;;;;;;;;5092999;28;20119;-72
2021/04/06 01:27:03;;;;;;;5.75;3.58;;;;;;;;;;5093831;28;20032;-72
2021/04/06 01:29:29;;;;;;;6.75;4.63;;;;;;;;;;5093500;28;20486;-72
2021/04/06 01:31:57;;;;;;;8.40;4.57;;;;;;;;;;5092561;28;20039;-72
2021/04/06 01:34:23;;;;;;;8.35;4.40;;;;;;;;;;5094232;28;20036;-72
2021/04/06 01:36:53;;;;;;;8.95;4.25;;;;;;;;;;5092041;28;20036;-72
2021/04/06 01:39:21;;;;;;;7.38;4.35;;;;;;;;;;5094303;28;20036;-72
2021/04/06 01:41:48;;;;;;;6.85;4.50;;;;;;;;;;5093711;28;20492;-73
2021/04/06 01:44:15;;;;;;;7.20;4.15;;;;;;;;;;5093138;28;20059;-72
2021/04/06 01:46:43;;;;;;;8.80;3.72;;;;;;;;;;5092005;28;20046;-72
2021/04/06 01:49:11;;;;;;;6.10;2.90;;;;;;;;;;5093185;28;20494;-73
2021/04/06 01:51:37;;;;;;;4.28;2.60;;;;;;;;;;5091990;28;20035;-73
2021/04/06 01:54:05;;;;;;;5.80;2.33;;;;;;;;;;5097696;28;20096;-72
2021/04/06 01:56:35;;;;;;;3.15;2.28;;;;;;;;;;5097435;28;20051;-73
2021/04/06 01:59:06;;;;;;;2.83;2.05;;;;;;;;;;5096051;28;20482;-73
2021/04/06 02:01:33;;;;;;;3.60;2.10;;;;;;;;;;5097092;28;20543;-73
2021/04/06 02:04:03;;;;;;;3.88;1.85;;;;;;;;;;5097467;28;20115;-73
2021/04/06 02:06:31;;;;;;;3.38;1.63;;;;;;;;;;5096914;28;20032;-73
2021/04/06 02:08:57;;;;;;;4.82;1.60;;;;;;;;;;5095959;28;20119;-73
2021/04/06 02:11:23;;;;;;;4.15;1.70;;;;;;;;;;5096685;28;20107;-73
2021/04/06 02:13:50;;;;;;;5.70;1.52;;;;;;;;;;5097210;28;20462;-73
2021/04/06 02:16:15;;;;;;;5.65;1.80;;;;;;;;;;5096997;28;20039;-73
2021/04/06 02:18:41;;;;;;;3.65;2.13;;;;;;;;;;5094827;28;20017;-73
2021/04/06 02:21:07;;;;;;;2.95;1.65;;;;;;;;;;5097389;28;20036;-73
2021/04/06 02:23:39;;;;;;;3.13;1.50;;;;;;;;;;5096957;28;20035;-74
2021/04/06 02:26:04;;;;;;;4.15;1.40;;;;;;;;;;5096622;28;20123;-73
2021/04/06 02:28:31;;;;;;;6.82;1.30;;;;;;;;;;5096437;28;20162;-73
2021/04/06 02:30:59;;;;;;;4.03;1.42;;;;;;;;;;5095302;28;20040;-73
2021/04/06 02:33:30;;;;;;;2.00;1.33;;;;;;;;;;5095968;28;20027;-73
2021/04/06 02:35:58;;;;;;;6.85;1.73;;;;;;;;;;5094644;28;20444;-73
2021/04/06 02:38:24;;;;;;;4.00;1.40;;;;;;;;;;5096310;28;20032;-73
2021/04/06 02:41:20;;;;;;;4.78;1.85;;;;;;;;;;5095846;28;20047;-73
2021/04/06 02:43:48;;;;;;;3.17;1.70;;;;;;;;;;5095961;28;20075;-73
2021/04/06 02:46:18;;;;;;;6.07;1.70;;;;;;;;;;5095148;28;20036;-73
2021/04/06 02:48:44;;;;;;;2.00;1.38;;;;;;;;;;5096131;28;20122;-73
2021/04/06 02:51:10;;;;;;;4.97;1.55;;;;;;;;;;5096009;28;20119;-73
2021/04/06 02:53:38;;;;;;;3.15;1.70;;;;;;;;;;5096202;28;20461;-73
2021/04/06 02:56:04;;;;;;;2.80;1.50;;;;;;;;;;5095520;28;20038;-73
2021/04/06 02:58:37;;;;;;;3.65;1.73;;;;;;;;;;5095900;28;20036;-72
2021/04/06 03:01:16;;;;;;;7.00;1.70;;;;;;;;;;5095936;28;20093;-72
2021/04/06 03:03:42;;;;;;;3.28;1.30;;;;;;;;;;5095591;28;20032;-72
2021/04/06 03:06:13;;;;;;;4.50;1.73;;;;;;;;;;5096225;28;20103;-73
2021/04/06 03:08:39;;;;;;;11.77;2.35;;;;;;;;;;5096107;28;20056;-73
2021/04/06 03:11:11;;;;;;;6.28;2.00;;;;;;;;;;5095701;28;20043;-73
2021/04/06 03:13:42;;;;;;;5.55;2.80;;;;;;;;;;5094716;28;20043;-73
2021/04/06 03:16:09;;;;;;;9.45;2.35;;;;;;;;;;5094676;28;20430;-73
2021/04/06 03:18:40;;;;;;;8.50;2.65;;;;;;;;;;5096138;28;20023;-73
2021/04/06 03:21:08;;;;;;;5.72;2.50;;;;;;;;;;5095800;28;20062;-73
2021/04/06 03:23:34;;;;;;;6.95;2.33;;;;;;;;;;5093858;28;20361;-73
2021/04/06 03:26:01;;;;;;;8.55;2.13;;;;;;;;;;5095895;28;20390;-73
2021/04/06 03:28:35;;;;;;;6.15;1.60;;;;;;;;;;5095684;28;20031;-73
2021/04/06 03:31:10;;;;;;;3.97;1.60;;;;;;;;;;5095725;28;20078;-73
2021/04/06 03:33:40;;;;;;;4.40;1.58;;;;;;;;;;5095665;28;20131;-72
2021/04/06 03:36:06;;;;;;;6.25;1.63;;;;;;;;;;5095577;28;20078;-73
2021/04/06 03:38:31;;;;;;;8.27;1.98;;;;;;;;;;5095435;28;20016;-73
2021/04/06 03:40:57;;;;;;;6.53;1.90;;;;;;;;;;5093191;28;20044;-73
2021/04/06 03:43:22;;;;;;;5.68;2.15;;;;;;;;;;5095522;28;20039;-73
2021/04/06 03:46:02;;;;;;;8.90;1.80;;;;;;;;;;5094348;28;20089;-73
2021/04/06 03:48:32;;;;;;;4.88;2.03;;;;;;;;;;5095516;28;20135;-73
2021/04/06 03:50:58;;;;;;;6.43;2.00;;;;;;;;;;5095432;28;20082;-73
2021/04/06 03:53:35;;;;;;;10.05;2.33;;;;;;;;;;5095507;28;20374;-73
2021/04/06 03:56:03;;;;;;;5.95;2.22;;;;;;;;;;5095401;28;20032;-73
2021/04/06 03:58:33;;;;;;;4.95;1.67;;;;;;;;;;5095067;28;20062;-73
2021/04/06 04:00:59;;;;;;;5.63;2.10;;;;;;;;;;5095112;28;20036;-73
2021/04/06 04:03:24;;;;;;;6.90;2.45;;;;;;;;;;5094741;28;20379;-72
2021/04/06 04:05:50;;;;;;;5.47;2.00;;;;;;;;;;5094461;28;20040;-72
2021/04/06 04:08:16;;;;;;;4.28;2.15;;;;;;;;;;5093118;28;20039;-72
2021/04/06 04:10:41;;;;;;;7.05;1.90;;;;;;;;;;5094217;28;20529;-72
2021/04/06 04:13:07;;;;;;;7.50;2.17;;;;;;;;;;5093277;28;20490;-72
2021/04/06 04:15:33;;;;;;;3.75;1.80;;;;;;;;;;5093778;28;20395;-72
2021/04/06 04:17:58;;;;;;;7.65;2.13;;;;;;;;;;5094313;28;20119;-73
2021/04/06 04:20:24;;;;;;;4.43;1.77;;;;;;;;;;5094274;28;20107;-75
2021/04/06 04:22:51;;;;;;;4.90;2.03;;;;;;;;;;5091568;28;20050;-72
2021/04/06 04:25:17;;;;;;;5.43;2.45;;;;;;;;;;5093924;28;20043;-72
2021/04/06 04:27:43;;;;;;;5.43;2.03;;;;;;;;;;5092457;28;20432;-72
2021/04/06 04:30:10;;;;;;;4.60;1.85;;;;;;;;;;5094070;28;20389;-72
2021/04/06 04:32:36;;;;;;;6.20;2.22;;;;;;;;;;5092828;28;20425;-73
2021/04/06 04:35:03;;;;;;;9.63;2.60;;;;;;;;;;5093908;28;20032;-73
2021/04/06 04:37:28;;;;;;;5.30;2.10;;;;;;;;;;5093840;28;20028;-73
2021/04/06 04:39:54;;;;;;;7.47;2.55;;;;;;;;;;5094138;28;20111;-73
2021/04/06 04:42:19;;;;;;;7.38;2.00;;;;;;;;;;5091378;28;20485;-73
2021/04/06 04:44:44;;;;;;;7.18;2.25;;;;;;;;;;5093932;28;20035;-73
2021/04/06 04:47:10;;;;;;;5.13;2.42;;;;;;;;;;5093931;28;20473;-74
2021/04/06 04:49:35;;;;;;;6.20;2.22;;;;;;;;;;5092696;28;20036;-73
2021/04/06 04:52:01;;;;;;;4.97;2.20;;;;;;;;;;5093711;28;20046;-73
2021/04/06 04:54:27;;;;;;;7.18;2.20;;;;;;;;;;5093113;28;20090;-73
2021/04/06 04:56:53;;;;;;;6.07;2.10;;;;;;;;;;5093559;28;20119;-73
2021/04/06 04:59:18;;;;;;;10.35;3.15;;;;;;;;;;5093565;28;20039;-73
2021/04/06 05:01:44;;;;;;;5.35;2.28;;;;;;;;;;5092372;28;20031;-73
2021/04/06 05:04:09;;;;;;;11.07;2.92;;;;;;;;;;5092866;28;20115;-73
2021/04/06 05:06:35;;;;;;;5.55;2.25;;;;;;;;;;5093466;28;20093;-73
2021/04/06 05:09:00;;;;;;;7.45;2.60;;;;;;;;;;5093324;28;20040;-73
2021/04/06 05:11:26;;;;;;;5.97;2.13;;;;;;;;;;5093553;28;20028;-73
2021/04/06 05:13:52;;;;;;;9.40;2.67;;;;;;;;;;5093042;28;20454;-73
2021/04/06 05:16:19;;;;;;;8.43;3.03;;;;;;;;;;5092495;28;20137;-73
2021/04/06 05:18:44;;;;;;;7.72;2.15;;;;;;;;;;5093281;28;20035;-73
2021/04/06 05:21:09;;;;;;;7.13;3.60;;;;;;;;;;5093558;28;20032;-73
2021/04/06 05:23:35;;;;;;;6.75;2.47;;;;;;;;;;5092450;28;20062;-74
2021/04/06 05:26:00;;;;;;;8.75;2.13;;;;;;;;;;5093055;28;20020;-73
2021/04/06 05:28:26;;;;;;;6.43;2.22;;;;;;;;;;5093188;28;20032;-73
2021/04/06 05:30:51;;;;;;;6.80;1.90;;;;;;;;;;5092948;28;20391;-73
2021/04/06 05:33:16;;;;;;;5.43;2.20;;;;;;;;;;5093339;28;20039;-73
2021/04/06 05:35:42;;;;;;;5.82;1.75;;;;;;;;;;5091956;28;20077;-73
2021/04/06 05:38:07;;;;;;;5.35;1.95;;;;;;;;;;5093078;28;20031;-73
2021/04/06 05:40:33;;;;;;;7.00;2.00;;;;;;;;;;5093087;28;20039;-73
2021/04/06 05:43:02;;;;;;;4.03;2.05;;;;;;;;;;5093093;28;20031;-73
2021/04/06 05:45:31;;;;;;;3.97;1.70;;;;;;;;;;5092016;28;20377;-73
2021/04/06 05:47:58;;;;;;;6.00;1.85;;;;;;;;;;5092864;28;20038;-73
2021/04/06 05:50:24;;;;;;;3.90;1.52;;;;;;;;;;5092002;28;20043;-73
2021/04/06 05:52:50;;;;;;;4.88;1.92;;;;;;;;;;5093067;28;20036;-73
2021/04/06 05:55:15;;;;;;;5.40;2.00;;;;;;;;;;5091909;28;20044;-73
2021/04/06 05:57:41;;;;;;;5.53;1.88;;;;;;;;;;5092953;28;20034;-73
2021/04/06 06:00:08;;;;;;;5.80;2.30;;;;;;;;;;5091433;28;20103;-73
2021/04/06 06:02:35;;;;;;;8.38;2.22;;;;;;;;;;5093009;28;20034;-73
2021/04/06 06:05:01;;;;;;;5.75;2.42;;;;;;;;;;5092516;28;20037;-73
2021/04/06 06:07:26;;;;;;;4.82;2.03;;;;;;;;;;5092656;28;20123;-73
2021/04/06 06:09:52;;;;;;;5.65;2.45;;;;;;;;;;5093096;28;20035;-73
2021/04/06 06:12:19;;;;;;;4.28;1.88;;;;;;;;;;5092989;28;20029;-73
2021/04/06 06:14:51;;;;;;;8.95;2.03;;;;;;;;;;5092693;28;20028;-73
2021/04/06 06:17:18;;;;;;;4.70;2.15;;;;;;;;;;5092688;28;20032;-73
2021/04/06 06:19:46;;;;;;;7.30;2.42;;;;;;;;;;5091530;28;20032;-73
2021/04/06 06:22:16;;;;;;;5.63;1.83;;;;;;;;;;5092882;28;20192;-74
2021/04/06 06:24:45;;;;;;;6.00;2.40;;;;;;;;;;5092887;28;20040;-74
2021/04/06 06:27:42;;;;;;;4.72;2.20;;;;;;;;;;5092447;28;20054;-73
2021/04/06 06:30:31;;;;;;;9.52;1.95;;;;;;;;;;5092649;28;20083;-73
2021/04/06 06:33:26;;;;;;;10.38;2.53;;;;;;;;;;5092858;28;20036;-74
2021/04/06 06:36:00;;;;;;;8.48;2.13;;;;;;;;;;5092801;28;20055;-74
2021/04/06 06:38:33;;;;;;;9.93;3.00;;;;;;;;;;5094391;28;20035;-74
2021/04/06 06:41:09;;;;;;;8.43;2.28;;;;;;;;;;5095212;28;20100;-74
2021/04/06 06:43:35;;;;;;;8.43;2.58;;;;;;;;;;5096210;28;20046;-73
2021/04/06 06:46:00;;;;;;;7.07;2.53;;;;;;;;;;5096294;28;20124;-74
2021/04/06 06:48:33;;;;;;;25.90;3.45;;;;;;;;;;5095977;28;20135;-74
2021/04/06 06:51:03;;;;;;;8.07;2.42;;;;;;;;;;5096146;28;20032;-73
2021/04/06 06:53:30;;;;;;;11.45;2.80;;;;;;;;;;5095939;28;20396;-74
2021/04/06 06:55:56;;;;;;;8.82;2.58;;;;;;;;;;5094655;28;20036;-74
2021/04/06 06:58:30;;;;;;;11.00;2.40;;;;;;;;;;5095816;28;20016;-73
2021/04/06 07:00:55;;;;;;;4.93;2.40;;;;;;;;;;5094895;28;20103;-74
2021/04/06 07:03:21;;;;;;;8.18;2.80;;;;;;;;;;5077891;28;20564;-74
2021/04/06 07:05:46;;;;;;;6.45;2.17;;;;;;;;;;5095784;28;20401;-74
2021/04/06 07:08:11;;;;;;;11.40;2.20;;;;;;;;;;5094772;28;20032;-74
2021/04/06 07:10:40;;;;;;;8.27;1.92;;;;;;;;;;5095568;28;20040;-74
2021/04/06 07:13:14;;;;;;;8.70;2.70;;;;;;;;;;5095523;28;20378;-74
2021/04/06 07:15:42;;;;;;;8.60;2.30;;;;;;;;;;5094235;28;20028;-74
2021/04/06 07:18:14;;;;;;;6.63;2.13;;;;;;;;;;5095263;28;20028;-74
2021/04/06 07:20:47;;;;;;;4.70;1.90;;;;;;;;;;5095622;28;20086;-74
2021/04/06 07:23:16;;;;;;;13.77;2.42;;;;;;;;;;5095557;28;20394;-74
2021/04/06 07:25:44;;;;;;;13.18;4.38;;;;;;;;;;5094557;28;20054;-74
2021/04/06 07:28:14;;;;;;;11.52;2.08;;;;;;;;;;5095174;28;20040;-74
2021/04/06 07:30:39;;;;;;;9.73;2.58;;;;;;;;;;5095207;28;20071;-74
2021/04/06 07:33:06;;;;;;;14.20;2.17;;;;;;;;;;5094957;28;20056;-74
2021/04/06 07:35:32;;;;;;;9.00;2.60;;;;;;;;;;5094632;28;20034;-74
2021/04/06 07:37:57;;;;;;;21.20;3.75;;;;;;;;;;5095003;28;20028;-74
2021/04/06 07:40:24;;;;;;;14.10;2.85;;;;;;;;;;5095049;28;20085;-74
2021/04/06 07:42:51;;;;;;;14.05;3.13;;;;;;;;;;5095027;28;20043;-74
2021/04/06 07:45:22;;;;;;;10.57;3.00;;;;;;;;;;5093844;28;20063;-74
2021/04/06 07:47:49;;;;;;;10.70;3.22;;;;;;;;;;5094813;28;20046;-74
2021/04/06 07:50:32;;;;;;;9.20;2.40;;;;;;;;;;5093902;28;20047;-74
2021/04/06 07:53:26;;;;;;;9.02;2.63;;;;;;;;;;5094974;28;20039;-74
2021/04/06 07:55:57;;;;;;;9.18;2.13;;;;;;;;;;5094509;28;20032;-74
2021/04/06 07:58:44;;;;;;;13.30;2.13;;;;;;;;;;5094592;28;20051;-75
2021/04/06 08:01:12;;;;;;;8.23;2.08;;;;;;;;;;5093337;28;20067;-75
2021/04/06 08:04:02;;;;;;;8.43;2.20;;;;;;;;;;5094824;28;20032;-75
2021/04/06 08:06:39;;;;;;;11.93;2.42;;;;;;;;;;5091673;28;20051;-75
2021/04/06 08:09:25;;;;;;;9.55;1.90;;;;;;;;;;5094284;28;20035;-74
2021/04/06 08:12:26;;;;;;;4.68;2.00;;;;;;;;;;5094445;28;20115;-75
2021/04/06 08:14:56;;;;;;;11.65;2.08;;;;;;;;;;5070099;28;20127;-74
2021/04/06 08:17:25;;;;;;;8.70;2.63;;;;;;;;;;5072898;28;20117;-74
2021/04/06 08:20:28;;;;;;;8.20;2.13;;;;;;;;;;5072944;28;20068;-74
2021/04/06 08:23:08;;;;;;;5.45;2.10;;;;;;;;;;5074012;28;20029;-74
2021/04/06 08:25:34;;;;;;;7.43;2.20;;;;;;;;;;5074007;28;20036;-74
2021/04/06 08:28:01;;;;;;;10.50;2.25;;;;;;;;;;5072073;28;20032;-74
2021/04/06 08:30:37;;;;;;;9.32;2.70;;;;;;;;;;5073942;28;20045;-74
2021/04/06 08:33:10;;;;;;;6.53;2.67;;;;;;;;;;5072724;28;20032;-74
2021/04/06 08:35:39;;;;;;;11.60;2.42;;;;;;;;;;5073795;28;20032;-74
2021/04/06 08:38:25;;;;;;;9.32;2.53;;;;;;;;;;5073765;28;20036;-74
2021/04/06 08:40:56;;;;;;;10.67;3.73;;;;;;;;;;5086677;28;20428;-74
2021/04/06 08:43:35;;;;;;;11.10;2.92;;;;;;;;;;5093970;28;20286;-74
2021/04/06 08:46:04;;;;;;;16.20;3.13;;;;;;;;;;5093791;28;20040;-74
2021/04/06 08:51:42;;;;;;;8.77;2.28;;;;;;;;;;5093929;28;20077;-74
2021/04/06 08:54:21;;;;;;;13.95;2.80;;;;;;;;;;5093572;28;20067;-74
2021/04/06 08:56:57;;;;;;;11.90;3.08;;;;;;;;;;5093453;28;20074;-75
2021/04/06 08:59:32;;;;;;;8.75;2.38;;;;;;;;;;5093768;28;20035;-74
2021/04/06 09:02:02;;;;;;;9.80;2.47;;;;;;;;;;5092021;28;20462;-75
2021/04/06 09:04:29;;;;;;;19.73;3.80;;;;;;;;;;5093658;28;20035;-75
2021/04/06 09:06:56;;;;;;;13.02;3.15;;;;;;;;;;5092143;28;20497;-75
2021/04/06 09:09:30;;;;;;;14.30;3.63;;;;;;;;;;5093398;28;20121;-75
2021/04/06 09:11:58;;;;;;;15.38;3.25;;;;;;;;;;5093320;28;20081;-75
2021/04/06 09:14:25;;;;;;;12.98;2.65;;;;;;;;;;5092327;28;20469;-75
2021/04/06 09:16:53;;;;;;;15.18;3.13;;;;;;;;;;5092293;28;20044;-75
2021/04/06 09:19:20;;;;;;;10.30;2.47;;;;;;;;;;5093246;28;20371;-75
2021/04/06 09:21:52;;;;;;;9.80;2.47;;;;;;;;;;5092222;28;20118;-76
2021/04/06 09:24:19;;;;;;;13.02;3.10;;;;;;;;;;5093466;28;20042;-75
2021/04/06 09:26:45;;;;;;;21.10;4.13;;;;;;;;;;5092818;28;20074;-75
2021/04/06 09:29:19;;;;;;;16.25;3.70;;;;;;;;;;5092971;28;20093;-75
2021/04/06 09:31:48;;;;;;;11.93;3.20;;;;;;;;;;5092880;28;20549;-75
2021/04/06 09:34:24;;;;;;;14.50;3.10;;;;;;;;;;5093347;28;20028;-75
2021/04/06 09:36:54;;;;;;;6.75;2.40;;;;;;;;;;5093210;28;20481;-75
2021/04/06 09:39:20;;;;;;;14.82;2.75;;;;;;;;;;5093247;28;20036;-75
2021/04/06 09:41:46;;;;;;;11.02;2.90;;;;;;;;;;5093123;28;20561;-75
2021/04/06 09:44:14;;;;;;;9.57;2.88;;;;;;;;;;5092055;28;20112;-75
2021/04/06 09:46:44;;;;;;;12.15;2.35;;;;;;;;;;5093460;28;20433;-75
2021/04/06 09:49:11;;;;;;;15.60;3.65;;;;;;;;;;5091884;28;20055;-75
2021/04/06 09:51:38;;;;;;;13.93;2.92;;;;;;;;;;5093104;28;20064;-75
2021/04/06 09:54:05;;;;;;;10.35;2.35;;;;;;;;;;5092962;28;20036;-75
2021/04/06 09:56:33;;;;;;;12.65;3.80;;;;;;;;;;5093031;28;20028;-75
2021/04/06 09:58:59;;;;;;;11.40;2.63;;;;;;;;;;5093049;28;20043;-75
2021/04/06 10:01:27;;;;;;;8.27;2.55;;;;;;;;;;5092914;28;20028;-75
2021/04/06 10:04:01;;;;;;;10.45;2.65;;;;;;;;;;5092954;28;20039;-75
2021/04/06 10:06:39;;;;;;;11.65;2.42;;;;;;;;;;5092786;28;20036;-75
2021/04/06 10:09:24;;;;;;;7.65;2.22;;;;;;;;;;5092911;28;20463;-75
2021/04/06 10:11:51;;;;;;;10.45;2.35;;;;;;;;;;5091794;28;20434;-75
2021/04/06 10:14:17;;;;;;;8.27;2.58;;;;;;;;;;5095214;28;20119;-75
2021/04/06 10:16:43;;;;;;;10.50;2.80;;;;;;;;;;5096718;28;20032;-74
2021/04/06 10:19:25;;;;;;;11.40;3.17;;;;;;;;;;5095630;28;20039;-74
2021/04/06 10:22:15;;;;;;;15.60;3.55;;;;;;;;;;5096725;28;20039;-75
2021/04/06 10:24:52;;;;;;;9.98;2.53;;;;;;;;;;5096777;28;20081;-75
2021/04/06 10:27:29;;;;;;;12.55;2.58;;;;;;;;;;5096566;28;20040;-75
2021/04/06 10:29:58;;;;;;;9.00;2.60;;;;;;;;;;5096115;28;20490;-77
2021/04/06 10:32:32;;;;;;;8.10;2.38;;;;;;;;;;5095108;28;20126;-76
2021/04/06 10:35:11;;;;;;;6.55;2.10;;;;;;;;;;5096582;28;20436;-75
2021/04/06 10:37:45;;;;;;;13.95;2.65;;;;;;;;;;5094645;28;20032;-76
2021/04/06 10:40:30;;;;;;;8.77;2.25;;;;;;;;;;5096482;28;20043;-76
2021/04/06 10:43:03;;;;;;;10.13;2.30;;;;;;;;;;5096297;28;20063;-76
2021/04/06 10:45:30;;;;;;;10.70;2.90;;;;;;;;;;5095153;28;20031;-75
2021/04/06 10:48:11;;;;;;;12.38;2.78;;;;;;;;;;5096111;28;20549;-75
2021/04/06 10:50:52;;;;;;;9.88;2.60;;;;;;;;;;5096389;28;20039;-74
2021/04/06 10:53:31;;;;;;;9.35;2.30;;;;;;;;;;5095964;28;20424;-75
2021/04/06 10:56:02;;;;;;;6.70;2.25;;;;;;;;;;5096341;28;20040;-79
2021/04/06 10:58:38;;;;;;;8.23;2.47;;;;;;;;;;5088329;28;20056;-78
2021/04/06 11:01:07;;;;;;;8.70;2.60;;;;;;;;;;5075925;28;20041;-77
2021/04/06 11:03:43;;;;;;;7.30;2.30;;;;;;;;;;5057841;28;20408;-77
2021/04/06 11:06:28;;;;;;;8.35;1.85;;;;;;;;;;5075421;28;20045;-76
2021/04/06 11:08:54;;;;;;;5.32;1.92;;;;;;;;;;5075156;28;20032;-77
2021/04/06 11:11:30;;;;;;;5.25;2.10;;;;;;;;;;5075665;28;20485;-76
2021/04/06 11:14:02;;;;;;;12.02;2.42;;;;;;;;;;5075283;28;20036;-79
2021/04/06 11:16:28;;;;;;;9.48;2.20;;;;;;;;;;5075431;28;20471;-75
2021/04/06 11:19:15;;;;;;;7.72;2.50;;;;;;;;;;5075489;28;20086;-76
2021/04/06 11:21:47;;;;;;;7.97;2.22;;;;;;;;;;5075966;28;20089;-76
2021/04/06 11:24:14;;;;;;;11.07;2.03;;;;;;;;;;5074129;28;20024;-76
2021/04/06 11:26:39;;;;;;;11.25;2.35;;;;;;;;;;5074982;28;20056;-76
2021/04/06 11:29:07;;;;;;;4.40;1.63;;;;;;;;;;5074881;28;20099;-76
2021/04/06 11:31:35;;;;;;;7.80;2.28;;;;;;;;;;5091444;28;20040;-76
2021/04/06 11:34:03;;;;;;;5.35;1.75;;;;;;;;;;5094124;28;20093;-76
2021/04/06 11:36:28;;;;;;;9.95;2.28;;;;;;;;;;5095106;28;20043;-76
2021/04/06 11:38:54;;;;;;;9.77;2.22;;;;;;;;;;5094306;28;20462;-76
2021/04/06 11:41:20;;;;;;;9.57;2.70;;;;;;;;;;5095085;28;20028;-77
2021/04/06 11:43:47;;;;;;;6.60;2.10;;;;;;;;;;5097944;28;20104;-78
2021/04/06 11:46:13;;;;;;;7.10;2.10;;;;;;;;;;5115432;28;20031;-77
2021/04/06 11:48:39;;;;;;;7.15;2.00;;;;;;;;;;5115079;28;20035;-77
2021/04/06 11:51:05;;;;;;;9.55;2.20;;;;;;;;;;5104758;28;20027;-77
2021/04/06 11:53:31;;;;;;;7.00;1.90;;;;;;;;;;5094749;28;20122;-76
2021/04/06 11:55:56;;;;;;;8.00;1.88;;;;;;;;;;5094955;28;20116;-75
2021/04/06 11:58:22;;;;;;;5.68;1.42;;;;;;;;;;5075102;28;20043;-75
2021/04/06 12:00:47;;;;;;;6.78;1.92;;;;;;;;;;5074303;28;20037;-75
2021/04/06 12:03:13;;;;;;;8.52;1.90;;;;;;;;;;5086713;28;20039;-74
2021/04/06 12:05:38;;;;;;;7.30;2.40;;;;;;;;;;5093794;28;20040;-73
2021/04/06 12:08:04;;;;;;;5.20;1.85;;;;;;;;;;5093007;28;20032;-73
2021/04/06 12:10:31;;;;;;;5.80;1.90;;;;;;;;;;5094216;28;20046;-73
2021/04/06 12:12:57;;;;;;;4.63;1.90;;;;;;;;;;5094613;28;20043;-73
2021/04/06 12:15:22;;;;;;;3.72;1.50;;;;;;;;;;5092564;28;20040;-73
2021/04/06 12:17:50;;;;;;;8.00;2.88;;;;;;;;;;5094116;28;20028;-73
2021/04/06 12:20:16;;;;;;;4.90;1.70;;;;;;;;;;5094287;28;20076;-73
2021/04/06 12:22:42;;;;;;;7.07;1.65;;;;;;;;;;5092953;28;20123;-74
2021/04/06 12:25:07;;;;;;;3.03;1.48;;;;;;;;;;5094289;28;20478;-74
2021/04/06 12:27:33;;;;;;;4.13;1.77;;;;;;;;;;5093840;28;20450;-74
2021/04/06 12:29:58;;;;;;;8.65;2.30;;;;;;;;;;5093916;28;20043;-75
2021/04/06 12:32:24;;;;;;;6.35;1.75;;;;;;;;;;5093923;28;20097;-75
2021/04/06 12:34:49;;;;;;;7.38;2.38;;;;;;;;;;5093807;28;20039;-75
2021/04/06 12:37:15;;;;;;;3.08;1.48;;;;;;;;;;5093256;28;20036;-75
2021/04/06 12:39:40;;;;;;;4.05;1.55;;;;;;;;;;5094130;28;20038;-75
2021/04/06 12:42:07;;;;;;;3.38;1.50;;;;;;;;;;5093934;28;20543;-75
2021/04/06 12:44:32;;;;;;;3.70;1.60;;;;;;;;;;5092840;28;20036;-76
2021/04/06 12:46:58;;;;;;;4.45;1.70;;;;;;;;;;5093655;28;20032;-75
2021/04/06 12:49:23;;;;;;;6.03;1.88;;;;;;;;;;5093616;28;20040;-75
2021/04/06 12:51:49;;;;;;;2.60;1.30;;;;;;;;;;5093634;28;20043;-75
2021/04/06 12:54:14;;;;;;;4.63;1.98;;;;;;;;;;5093743;28;20036;-75
2021/04/06 12:56:39;;;;;;;4.07;1.48;;;;;;;;;;5093172;28;20038;-75
2021/04/06 12:59:05;;;;;;;3.88;1.60;;;;;;;;;;5093612;28;20023;-75
2021/04/06 13:01:30;;;;;;;6.30;2.97;;;;;;;;;;5091924;28;20040;-76
2021/04/06 13:03:56;;;;;;;5.93;1.77;;;;;;;;;;5093256;28;20024;-76
2021/04/06 13:06:21;;;;;;;3.45;1.42;;;;;;;;;;5090755;28;20111;-76
2021/04/06 13:08:47;;;;;;;4.93;1.63;;;;;;;;;;5093497;28;20032;-76
2021/04/06 13:11:12;;;;;;;5.07;1.63;;;;;;;;;;5093777;28;20032;-76
2021/04/06 13:13:37;;;;;;;6.78;1.90;;;;;;;;;;5093559;28;20068;-76
2021/04/06 13:16:03;;;;;;;4.70;1.50;;;;;;;;;;5091966;28;20043;-76
2021/04/06 13:18:29;;;;;;;6.57;1.50;;;;;;;;;;5092224;28;20031;-75
2021/04/06 13:20:55;;;;;;;4.57;1.60;;;;;;;;;;5093416;28;20027;-77
2021/04/06 13:23:20;;;;;;;3.88;1.50;;;;;;;;;;5093335;28;20485;-77
2021/04/06 13:25:46;;;;;;;5.05;1.67;;;;;;;;;;5093017;28;20106;-77
2021/04/06 13:28:11;;;;;;;6.97;1.80;;;;;;;;;;5074298;28;20484;-77
2021/04/06 13:30:37;;;;;;;3.58;1.50;;;;;;;;;;5093098;28;20052;-77
2021/04/06 13:33:02;;;;;;;5.82;1.65;;;;;;;;;;5092510;28;20028;-77
2021/04/06 13:35:28;;;;;;;4.53;1.70;;;;;;;;;;5093203;28;20470;-77
2021/04/06 13:37:54;;;;;;;9.07;1.73;;;;;;;;;;5093015;28;20036;-77
2021/04/06 13:40:21;;;;;;;3.25;1.35;;;;;;;;;;5100983;28;20039;-77
2021/04/06 13:42:47;;;;;;;9.48;1.83;;;;;;;;;;5112339;28;20031;-77
2021/04/06 13:45:23;;;;;;;6.45;1.92;;;;;;;;;;5113834;28;20052;-77
2021/04/06 13:47:49;;;;;;;6.05;2.85;;;;;;;;;;5115952;28;20039;-77
2021/04/06 13:50:14;;;;;;;7.78;1.80;;;;;;;;;;5117660;28;20032;-77
2021/04/06 13:52:40;;;;;;;3.88;1.80;;;;;;;;;;5116548;28;20493;-77
2021/04/06 13:55:08;;;;;;;4.22;1.60;;;;;;;;;;5117596;28;20449;-77
2021/04/06 13:57:35;;;;;;;5.53;1.98;;;;;;;;;;5117199;28;20074;-77
2021/04/06 14:00:03;;;;;;;3.88;1.52;;;;;;;;;;5117639;28;20561;-77
2021/04/06 14:02:37;;;;;;;3.35;1.23;;;;;;;;;;5117486;28;20032;-77
2021/04/06 14:05:03;;;;;;;8.65;1.77;;;;;;;;;;5116427;28;20043;-77
2021/04/06 14:07:28;;;;;;;3.83;1.42;;;;;;;;;;5117389;28;20038;-77
2021/04/06 14:09:54;;;;;;;7.88;1.27;;;;;;;;;;5104885;28;20035;-77
2021/04/06 14:12:19;;;;;;;3.33;1.25;;;;;;;;;;5097039;28;20050;-77
2021/04/06 14:14:45;;;;;;;1.50;0.82;;;;;;;;;;5097174;28;20040;-77
2021/04/06 14:17:10;;;;;;;4.85;1.08;;;;;;;;;;5096697;28;20039;-77
2021/04/06 14:19:36;;;;;;;2.78;0.90;;;;;;;;;;5097081;28;20090;-77
2021/04/06 14:22:03;;;;;;;2.80;1.30;;;;;;;;;;5096859;28;20032;-77
2021/04/06 14:24:28;;;;;;;2.88;1.50;;;;;;;;;;5096579;28;20051;-77
2021/04/06 14:26:54;;;;;;;4.07;1.05;;;;;;;;;;5096636;28;20478;-77
2021/04/06 14:29:19;;;;;;;4.80;1.33;;;;;;;;;;5096190;28;20032;-77
2021/04/06 14:31:45;;;;;;;3.28;1.42;;;;;;;;;;5095341;28;20032;-77
2021/04/06 14:34:10;;;;;;;2.03;0.90;;;;;;;;;;5095291;28;20052;-77
2021/04/06 14:36:36;;;;;;;4.88;1.77;;;;;;;;;;5096561;28;20036;-77
2021/04/06 14:39:04;;;;;;;1.85;1.08;;;;;;;;;;5095048;28;20088;-77
2021/04/06 14:41:29;;;;;;;1.98;1.27;;;;;;;;;;5096428;28;20035;-77
2021/04/06 14:43:55;;;;;;;2.25;1.10;;;;;;;;;;5095214;28;20047;-77
2021/04/06 14:46:23;;;;;;;3.75;1.45;;;;;;;;;;5096099;28;20169;-77
2021/04/06 14:48:51;;;;;;;2.35;0.90;;;;;;;;;;5094877;28;20039;-76
2021/04/06 14:51:18;;;;;;;3.08;1.30;;;;;;;;;;5095066;28;20454;-77
2021/04/06 14:53:45;;;;;;;4.32;1.48;;;;;;;;;;5096055;28;20425;-77
2021/04/06 14:56:11;;;;;;;6.07;1.45;;;;;;;;;;5096065;28;20035;-77